sensor_id;sensor_type;location;lat;lon;timestamp;temperature;humidity
2603;DHT22;1311;47.966;7.958;2022-12-18T00:02:14;-6.20;99.90
2603;DHT22;1311;47.966;7.958;2022-12-18T00:04:41;-6.30;99.90
2603;DHT22;1311;47.966;7.958;2022-12-18T00:07:07;-6.30;99.90
2603;DHT22;1311;47.966;7.958;2022-12-18T00:09:34;-6.40;99.90
2603;DHT22;1311;47.966;7.958;2022-12-18T00:12:03;-6.50;99.90
2603;DHT22;1311;47.966;7.958;2022-12-18T00:14:30;-6.60;99.90
2603;DHT22;1311;47.966;7.958;2022-12-18T00:16:58;-6.70;99.90
2603;DHT22;1311;47.966;7.958;2022-12-18T00:19:26;-6.70;99.90
2603;DHT22;1311;47.966;7.958;2022-12-18T00:21:53;-6.70;99.90
2603;DHT22;1311;47.966;7.958;2022-12-18T00:24:19;-6.80;99.90
2603;DHT22;1311;47.966;7.958;2022-12-18T00:26:46;-6.80;99.90
2603;DHT22;1311;47.966;7.958;2022-12-18T00:29:13;-6.90;99.90
2603;DHT22;1311;47.966;7.958;2022-12-18T00:31:41;-7.00;99.90
2603;DHT22;1311;47.966;7.958;2022-12-18T00:34:11;-7.00;99.90
2603;DHT22;1311;47.966;7.958;2022-12-18T00:36:39;-7.10;99.90
2603;DHT22;1311;47.966;7.958;2022-12-18T00:39:06;-7.10;99.90
2603;DHT22;1311;47.966;7.958;2022-12-18T00:41:33;-7.10;99.90
2603;DHT22;1311;47.966;7.958;2022-12-18T00:44:18;-7.20;99.90
2603;DHT22;1311;47.966;7.958;2022-12-18T00:46:46;-7.30;99.90
2603;DHT22;1311;47.966;7.958;2022-12-18T00:49:15;-7.30;99.90
2603;DHT22;1311;47.966;7.958;2022-12-18T00:51:42;-7.40;99.90
2603;DHT22;1311;47.966;7.958;2022-12-18T00:54:09;-7.40;99.90
2603;DHT22;1311;47.966;7.958;2022-12-18T00:56:36;-7.40;99.90
2603;DHT22;1311;47.966;7.958;2022-12-18T00:59:04;-7.40;99.90
2603;DHT22;1311;47.966;7.958;2022-12-18T01:01:31;-7.40;99.90
2603;DHT22;1311;47.966;7.958;2022-12-18T01:03:59;-7.30;99.90
2603;DHT22;1311;47.966;7.958;2022-12-18T01:06:30;-7.30;99.90
2603;DHT22;1311;47.966;7.958;2022-12-18T01:08:57;-7.30;99.90
2603;DHT22;1311;47.966;7.958;2022-12-18T01:11:24;-7.40;99.90
2603;DHT22;1311;47.966;7.958;2022-12-18T01:13:52;-7.40;99.90
2603;DHT22;1311;47.966;7.958;2022-12-18T01:16:18;-7.30;99.90
2603;DHT22;1311;47.966;7.958;2022-12-18T01:18:45;-7.40;99.90
2603;DHT22;1311;47.966;7.958;2022-12-18T01:21:14;-7.40;99.90
2603;DHT22;1311;47.966;7.958;2022-12-18T01:23:43;-7.50;99.90
2603;DHT22;1311;47.966;7.958;2022-12-18T01:26:12;-7.40;99.90
2603;DHT22;1311;47.966;7.958;2022-12-18T01:28:39;-7.40;99.90
2603;DHT22;1311;47.966;7.958;2022-12-18T01:31:11;-7.30;99.90
2603;DHT22;1311;47.966;7.958;2022-12-18T01:33:38;-7.30;99.90
2603;DHT22;1311;47.966;7.958;2022-12-18T01:36:06;-7.20;99.90
2603;DHT22;1311;47.966;7.958;2022-12-18T01:38:33;-7.20;99.90
2603;DHT22;1311;47.966;7.958;2022-12-18T01:41:01;-7.10;99.90
2603;DHT22;1311;47.966;7.958;2022-12-18T01:43:46;-7.10;99.90
2603;DHT22;1311;47.966;7.958;2022-12-18T01:46:13;-7.10;99.90
2603;DHT22;1311;47.966;7.958;2022-12-18T01:48:43;-7.10;99.90
2603;DHT22;1311;47.966;7.958;2022-12-18T01:51:11;-7.10;99.90
2603;DHT22;1311;47.966;7.958;2022-12-18T01:53:40;-7.00;99.90
2603;DHT22;1311;47.966;7.958;2022-12-18T01:56:13;-7.00;99.90
2603;DHT22;1311;47.966;7.958;2022-12-18T01:58:46;-7.00;99.90
2603;DHT22;1311;47.966;7.958;2022-12-18T02:01:15;-6.90;99.90
2603;DHT22;1311;47.966;7.958;2022-12-18T02:03:42;-6.90;99.90
2603;DHT22;1311;47.966;7.958;2022-12-18T02:06:14;-7.00;99.90
2603;DHT22;1311;47.966;7.958;2022-12-18T02:08:51;-7.00;99.90
2603;DHT22;1311;47.966;7.958;2022-12-18T02:11:30;-7.00;99.90
2603;DHT22;1311;47.966;7.958;2022-12-18T02:14:06;-7.10;99.90
2603;DHT22;1311;47.966;7.958;2022-12-18T02:16:40;-7.10;99.90
2603;DHT22;1311;47.966;7.958;2022-12-18T02:19:21;-7.10;99.90
2603;DHT22;1311;47.966;7.958;2022-12-18T02:21:57;-7.10;99.90
2603;DHT22;1311;47.966;7.958;2022-12-18T02:24:31;-7.00;99.90
2603;DHT22;1311;47.966;7.958;2022-12-18T02:27:05;-7.00;99.90
2603;DHT22;1311;47.966;7.958;2022-12-18T02:29:35;-7.00;99.90
2603;DHT22;1311;47.966;7.958;2022-12-18T02:32:08;-6.90;99.90
2603;DHT22;1311;47.966;7.958;2022-12-18T02:34:38;-6.90;99.90
2603;DHT22;1311;47.966;7.958;2022-12-18T02:37:08;-6.90;99.90
2603;DHT22;1311;47.966;7.958;2022-12-18T02:39:38;-6.90;99.90
2603;DHT22;1311;47.966;7.958;2022-12-18T02:42:07;-6.90;99.90
2603;DHT22;1311;47.966;7.958;2022-12-18T02:44:34;-6.90;99.90
2603;DHT22;1311;47.966;7.958;2022-12-18T02:47:01;-6.90;99.90
2603;DHT22;1311;47.966;7.958;2022-12-18T02:49:35;-6.80;99.90
2603;DHT22;1311;47.966;7.958;2022-12-18T02:52:11;-6.80;99.90
2603;DHT22;1311;47.966;7.958;2022-12-18T02:54:52;-6.90;99.90
2603;DHT22;1311;47.966;7.958;2022-12-18T02:57:28;-7.00;99.90
2603;DHT22;1311;47.966;7.958;2022-12-18T03:00:04;-7.10;99.90
2603;DHT22;1311;47.966;7.958;2022-12-18T03:02:37;-7.10;99.90
2603;DHT22;1311;47.966;7.958;2022-12-18T03:05:10;-7.20;99.90
2603;DHT22;1311;47.966;7.958;2022-12-18T03:07:43;-7.30;99.90
2603;DHT22;1311;47.966;7.958;2022-12-18T03:10:14;-7.30;99.90
2603;DHT22;1311;47.966;7.958;2022-12-18T03:12:47;-7.30;99.90
2603;DHT22;1311;47.966;7.958;2022-12-18T03:15:21;-7.40;99.90
2603;DHT22;1311;47.966;7.958;2022-12-18T03:17:52;-7.40;99.90
2603;DHT22;1311;47.966;7.958;2022-12-18T03:20:22;-7.40;99.90
2603;DHT22;1311;47.966;7.958;2022-12-18T03:22:53;-7.40;99.90
2603;DHT22;1311;47.966;7.958;2022-12-18T03:25:21;-7.40;99.90
2603;DHT22;1311;47.966;7.958;2022-12-18T03:27:55;-7.50;99.90
2603;DHT22;1311;47.966;7.958;2022-12-18T03:30:25;-7.50;99.90
2603;DHT22;1311;47.966;7.958;2022-12-18T03:32:56;-7.50;99.90
2603;DHT22;1311;47.966;7.958;2022-12-18T03:35:28;-7.60;99.90
2603;DHT22;1311;47.966;7.958;2022-12-18T03:37:56;-7.60;99.90
2603;DHT22;1311;47.966;7.958;2022-12-18T03:40:26;-7.70;99.90
2603;DHT22;1311;47.966;7.958;2022-12-18T03:43:02;-7.70;99.90
2603;DHT22;1311;47.966;7.958;2022-12-18T03:45:34;-7.70;99.90
2603;DHT22;1311;47.966;7.958;2022-12-18T03:48:06;-7.80;99.90
2603;DHT22;1311;47.966;7.958;2022-12-18T03:50:39;-7.80;99.90
2603;DHT22;1311;47.966;7.958;2022-12-18T03:53:23;-7.80;99.90
2603;DHT22;1311;47.966;7.958;2022-12-18T03:55:51;-7.80;99.90
2603;DHT22;1311;47.966;7.958;2022-12-18T03:58:23;-7.90;99.90
2603;DHT22;1311;47.966;7.958;2022-12-18T04:00:52;-7.90;99.90
2603;DHT22;1311;47.966;7.958;2022-12-18T04:03:20;-7.90;99.90
2603;DHT22;1311;47.966;7.958;2022-12-18T04:05:49;-7.90;99.90
2603;DHT22;1311;47.966;7.958;2022-12-18T04:08:18;-8.00;99.90
2603;DHT22;1311;47.966;7.958;2022-12-18T04:10:45;-7.90;99.90
2603;DHT22;1311;47.966;7.958;2022-12-18T04:13:12;-8.00;99.90
2603;DHT22;1311;47.966;7.958;2022-12-18T04:15:40;-8.00;99.90
2603;DHT22;1311;47.966;7.958;2022-12-18T04:18:07;-8.00;99.90
2603;DHT22;1311;47.966;7.958;2022-12-18T04:20:34;-8.00;99.90
2603;DHT22;1311;47.966;7.958;2022-12-18T04:23:01;-8.00;99.90
2603;DHT22;1311;47.966;7.958;2022-12-18T04:25:28;-8.00;99.90
2603;DHT22;1311;47.966;7.958;2022-12-18T04:27:54;-8.00;99.90
2603;DHT22;1311;47.966;7.958;2022-12-18T04:30:21;-8.00;99.90
2603;DHT22;1311;47.966;7.958;2022-12-18T04:32:49;-8.00;99.90
2603;DHT22;1311;47.966;7.958;2022-12-18T04:35:16;-8.10;99.90
2603;DHT22;1311;47.966;7.958;2022-12-18T04:37:43;-8.10;99.90
2603;DHT22;1311;47.966;7.958;2022-12-18T04:40:11;-8.10;99.90
2603;DHT22;1311;47.966;7.958;2022-12-18T04:42:39;-8.10;99.90
2603;DHT22;1311;47.966;7.958;2022-12-18T04:45:07;-8.10;99.90
2603;DHT22;1311;47.966;7.958;2022-12-18T04:47:34;-8.10;99.90
2603;DHT22;1311;47.966;7.958;2022-12-18T04:50:02;-8.10;99.90
2603;DHT22;1311;47.966;7.958;2022-12-18T04:52:32;-8.10;99.90
2603;DHT22;1311;47.966;7.958;2022-12-18T04:54:59;-8.20;99.90
2603;DHT22;1311;47.966;7.958;2022-12-18T04:57:26;-8.20;99.90
2603;DHT22;1311;47.966;7.958;2022-12-18T04:59:53;-8.20;99.90
2603;DHT22;1311;47.966;7.958;2022-12-18T05:02:19;-8.20;99.90
2603;DHT22;1311;47.966;7.958;2022-12-18T05:04:46;-8.20;99.90
2603;DHT22;1311;47.966;7.958;2022-12-18T05:07:14;-8.20;99.90
2603;DHT22;1311;47.966;7.958;2022-12-18T05:09:41;-8.20;99.90
2603;DHT22;1311;47.966;7.958;2022-12-18T05:12:08;-8.20;99.90
2603;DHT22;1311;47.966;7.958;2022-12-18T05:14:35;-8.20;99.90
2603;DHT22;1311;47.966;7.958;2022-12-18T05:17:03;-8.20;99.90
2603;DHT22;1311;47.966;7.958;2022-12-18T05:19:30;-8.10;99.90
2603;DHT22;1311;47.966;7.958;2022-12-18T05:21:57;-8.20;99.90
2603;DHT22;1311;47.966;7.958;2022-12-18T05:24:25;-8.20;99.90
2603;DHT22;1311;47.966;7.958;2022-12-18T05:26:52;-8.20;99.90
2603;DHT22;1311;47.966;7.958;2022-12-18T05:29:18;-8.20;99.90
2603;DHT22;1311;47.966;7.958;2022-12-18T05:31:45;-8.20;99.90
2603;DHT22;1311;47.966;7.958;2022-12-18T05:34:12;-8.10;99.90
2603;DHT22;1311;47.966;7.958;2022-12-18T05:36:39;-8.10;99.90
2603;DHT22;1311;47.966;7.958;2022-12-18T05:39:06;-8.20;99.90
2603;DHT22;1311;47.966;7.958;2022-12-18T05:41:34;-8.20;99.90
2603;DHT22;1311;47.966;7.958;2022-12-18T05:44:01;-8.10;99.90
2603;DHT22;1311;47.966;7.958;2022-12-18T05:46:29;-7.90;99.90
2603;DHT22;1311;47.966;7.958;2022-12-18T05:48:59;-7.70;99.90
2603;DHT22;1311;47.966;7.958;2022-12-18T05:51:25;-7.70;99.90
2603;DHT22;1311;47.966;7.958;2022-12-18T05:53:52;-7.80;99.90
2603;DHT22;1311;47.966;7.958;2022-12-18T05:56:21;-7.80;99.90
2603;DHT22;1311;47.966;7.958;2022-12-18T05:58:52;-7.80;99.90
2603;DHT22;1311;47.966;7.958;2022-12-18T06:01:22;-7.90;99.90
2603;DHT22;1311;47.966;7.958;2022-12-18T06:03:49;-7.80;99.90
2603;DHT22;1311;47.966;7.958;2022-12-18T06:06:17;-7.90;99.90
2603;DHT22;1311;47.966;7.958;2022-12-18T06:08:45;-7.90;99.90
2603;DHT22;1311;47.966;7.958;2022-12-18T06:11:13;-7.90;99.90
2603;DHT22;1311;47.966;7.958;2022-12-18T06:13:42;-7.80;99.90
2603;DHT22;1311;47.966;7.958;2022-12-18T06:16:10;-7.70;99.90
2603;DHT22;1311;47.966;7.958;2022-12-18T06:18:37;-7.80;99.90
2603;DHT22;1311;47.966;7.958;2022-12-18T06:21:05;-7.90;99.90
2603;DHT22;1311;47.966;7.958;2022-12-18T06:23:31;-7.90;99.90
2603;DHT22;1311;47.966;7.958;2022-12-18T06:25:58;-7.90;99.90
2603;DHT22;1311;47.966;7.958;2022-12-18T06:28:29;-7.90;99.90
2603;DHT22;1311;47.966;7.958;2022-12-18T06:30:56;-8.00;99.90
2603;DHT22;1311;47.966;7.958;2022-12-18T06:33:26;-8.00;99.90
2603;DHT22;1311;47.966;7.958;2022-12-18T06:35:53;-7.90;99.90
2603;DHT22;1311;47.966;7.958;2022-12-18T06:38:20;-8.00;99.90
2603;DHT22;1311;47.966;7.958;2022-12-18T06:40:47;-8.00;99.90
2603;DHT22;1311;47.966;7.958;2022-12-18T06:43:13;-8.00;99.90
2603;DHT22;1311;47.966;7.958;2022-12-18T06:45:40;-8.00;99.90
2603;DHT22;1311;47.966;7.958;2022-12-18T06:48:07;-8.00;99.90
2603;DHT22;1311;47.966;7.958;2022-12-18T06:50:35;-8.00;99.90
2603;DHT22;1311;47.966;7.958;2022-12-18T06:53:02;-8.00;99.90
2603;DHT22;1311;47.966;7.958;2022-12-18T06:55:29;-8.00;99.90
2603;DHT22;1311;47.966;7.958;2022-12-18T06:57:56;-8.00;99.90
2603;DHT22;1311;47.966;7.958;2022-12-18T07:00:23;-8.00;99.90
2603;DHT22;1311;47.966;7.958;2022-12-18T07:02:50;-8.00;99.90
2603;DHT22;1311;47.966;7.958;2022-12-18T07:05:16;-7.90;99.90
2603;DHT22;1311;47.966;7.958;2022-12-18T07:07:45;-7.80;99.90
2603;DHT22;1311;47.966;7.958;2022-12-18T07:10:11;-7.70;99.90
2603;DHT22;1311;47.966;7.958;2022-12-18T07:12:38;-7.70;99.90
2603;DHT22;1311;47.966;7.958;2022-12-18T07:15:06;-7.70;99.90
2603;DHT22;1311;47.966;7.958;2022-12-18T07:17:33;-7.70;99.90
2603;DHT22;1311;47.966;7.958;2022-12-18T07:20:00;-7.60;99.90
2603;DHT22;1311;47.966;7.958;2022-12-18T07:22:27;-7.50;99.90
2603;DHT22;1311;47.966;7.958;2022-12-18T07:24:55;-7.60;99.90
2603;DHT22;1311;47.966;7.958;2022-12-18T07:27:23;-7.60;99.90
2603;DHT22;1311;47.966;7.958;2022-12-18T07:29:50;-7.60;99.90
2603;DHT22;1311;47.966;7.958;2022-12-18T07:32:16;-7.60;99.90
2603;DHT22;1311;47.966;7.958;2022-12-18T07:34:43;-7.60;99.90
2603;DHT22;1311;47.966;7.958;2022-12-18T07:37:10;-7.60;99.90
2603;DHT22;1311;47.966;7.958;2022-12-18T07:39:37;-7.60;99.90
2603;DHT22;1311;47.966;7.958;2022-12-18T07:42:07;-7.60;99.90
2603;DHT22;1311;47.966;7.958;2022-12-18T07:44:51;-7.50;99.90
2603;DHT22;1311;47.966;7.958;2022-12-18T07:47:18;-7.50;99.90
2603;DHT22;1311;47.966;7.958;2022-12-18T07:49:46;-7.40;99.90
2603;DHT22;1311;47.966;7.958;2022-12-18T07:52:18;-7.40;99.90
2603;DHT22;1311;47.966;7.958;2022-12-18T07:54:46;-7.40;99.90
2603;DHT22;1311;47.966;7.958;2022-12-18T07:57:17;-7.30;99.90
2603;DHT22;1311;47.966;7.958;2022-12-18T07:59:44;-7.20;99.90
2603;DHT22;1311;47.966;7.958;2022-12-18T08:02:11;-7.20;99.90
2603;DHT22;1311;47.966;7.958;2022-12-18T08:04:38;-7.20;99.90
2603;DHT22;1311;47.966;7.958;2022-12-18T08:07:05;-7.10;99.90
2603;DHT22;1311;47.966;7.958;2022-12-18T08:09:33;-7.00;99.90
2603;DHT22;1311;47.966;7.958;2022-12-18T08:12:00;-7.00;99.90
2603;DHT22;1311;47.966;7.958;2022-12-18T08:14:28;-7.00;99.90
2603;DHT22;1311;47.966;7.958;2022-12-18T08:16:54;-7.00;99.90
2603;DHT22;1311;47.966;7.958;2022-12-18T08:19:21;-6.90;99.90
2603;DHT22;1311;47.966;7.958;2022-12-18T08:21:48;-6.80;99.90
2603;DHT22;1311;47.966;7.958;2022-12-18T08:24:15;-6.80;99.90
2603;DHT22;1311;47.966;7.958;2022-12-18T08:26:42;-6.70;99.90
2603;DHT22;1311;47.966;7.958;2022-12-18T08:29:10;-6.60;99.90
2603;DHT22;1311;47.966;7.958;2022-12-18T08:31:38;-6.40;99.90
2603;DHT22;1311;47.966;7.958;2022-12-18T08:34:05;-6.30;99.90
2603;DHT22;1311;47.966;7.958;2022-12-18T08:36:32;-6.10;99.90
2603;DHT22;1311;47.966;7.958;2022-12-18T08:38:58;-6.10;99.90
2603;DHT22;1311;47.966;7.958;2022-12-18T08:41:25;-5.90;99.90
2603;DHT22;1311;47.966;7.958;2022-12-18T08:43:52;-5.80;99.90
2603;DHT22;1311;47.966;7.958;2022-12-18T08:46:39;-5.60;99.90
2603;DHT22;1311;47.966;7.958;2022-12-18T08:49:07;-5.50;99.90
2603;DHT22;1311;47.966;7.958;2022-12-18T08:51:34;-5.30;99.90
2603;DHT22;1311;47.966;7.958;2022-12-18T08:54:01;-5.20;99.90
2603;DHT22;1311;47.966;7.958;2022-12-18T08:56:28;-5.10;99.90
2603;DHT22;1311;47.966;7.958;2022-12-18T08:58:57;-4.90;99.90
2603;DHT22;1311;47.966;7.958;2022-12-18T09:01:24;-4.80;99.90
2603;DHT22;1311;47.966;7.958;2022-12-18T09:03:52;-4.70;99.90
2603;DHT22;1311;47.966;7.958;2022-12-18T09:06:20;-4.70;99.90
2603;DHT22;1311;47.966;7.958;2022-12-18T09:08:49;-4.50;99.90
2603;DHT22;1311;47.966;7.958;2022-12-18T09:11:20;-4.40;99.90
2603;DHT22;1311;47.966;7.958;2022-12-18T09:13:47;-4.30;99.90
2603;DHT22;1311;47.966;7.958;2022-12-18T09:16:14;-4.20;99.90
2603;DHT22;1311;47.966;7.958;2022-12-18T09:18:41;-4.00;99.90
2603;DHT22;1311;47.966;7.958;2022-12-18T09:21:10;-3.90;99.90
2603;DHT22;1311;47.966;7.958;2022-12-18T09:23:37;-3.70;99.90
2603;DHT22;1311;47.966;7.958;2022-12-18T09:26:04;-3.60;99.90
2603;DHT22;1311;47.966;7.958;2022-12-18T09:28:32;-3.50;99.90
2603;DHT22;1311;47.966;7.958;2022-12-18T09:30:58;-3.40;99.90
2603;DHT22;1311;47.966;7.958;2022-12-18T09:33:31;-3.20;99.90
2603;DHT22;1311;47.966;7.958;2022-12-18T09:36:01;-3.10;99.90
2603;DHT22;1311;47.966;7.958;2022-12-18T09:38:30;-2.90;99.90
2603;DHT22;1311;47.966;7.958;2022-12-18T09:40:59;-2.80;99.90
2603;DHT22;1311;47.966;7.958;2022-12-18T09:43:33;-2.70;99.90
2603;DHT22;1311;47.966;7.958;2022-12-18T09:46:04;-2.70;99.90
2603;DHT22;1311;47.966;7.958;2022-12-18T09:48:35;-2.50;99.90
2603;DHT22;1311;47.966;7.958;2022-12-18T09:51:05;-2.50;99.90
2603;DHT22;1311;47.966;7.958;2022-12-18T09:53:41;-2.40;99.90
2603;DHT22;1311;47.966;7.958;2022-12-18T09:56:12;-2.20;99.90
2603;DHT22;1311;47.966;7.958;2022-12-18T09:58:46;-2.00;99.90
2603;DHT22;1311;47.966;7.958;2022-12-18T10:01:17;-1.80;99.90
2603;DHT22;1311;47.966;7.958;2022-12-18T10:03:45;-1.60;99.90
2603;DHT22;1311;47.966;7.958;2022-12-18T10:06:15;-1.50;99.90
2603;DHT22;1311;47.966;7.958;2022-12-18T10:08:51;-1.30;99.90
2603;DHT22;1311;47.966;7.958;2022-12-18T10:11:30;-1.20;99.90
2603;DHT22;1311;47.966;7.958;2022-12-18T10:14:05;-1.10;99.90
2603;DHT22;1311;47.966;7.958;2022-12-18T10:16:38;-0.90;99.90
2603;DHT22;1311;47.966;7.958;2022-12-18T10:19:21;-0.90;99.90
2603;DHT22;1311;47.966;7.958;2022-12-18T10:22:00;-0.60;99.90
2603;DHT22;1311;47.966;7.958;2022-12-18T10:24:34;-0.60;99.90
2603;DHT22;1311;47.966;7.958;2022-12-18T10:27:12;-0.50;99.90
2603;DHT22;1311;47.966;7.958;2022-12-18T10:29:41;-0.40;99.90
2603;DHT22;1311;47.966;7.958;2022-12-18T10:32:14;-0.20;99.90
2603;DHT22;1311;47.966;7.958;2022-12-18T10:34:44;-0.10;99.90
2603;DHT22;1311;47.966;7.958;2022-12-18T10:37:15;-0.10;99.90
2603;DHT22;1311;47.966;7.958;2022-12-18T10:39:44;0.00;99.90
2603;DHT22;1311;47.966;7.958;2022-12-18T10:42:16;0.10;99.90
2603;DHT22;1311;47.966;7.958;2022-12-18T10:44:43;0.30;99.90
2603;DHT22;1311;47.966;7.958;2022-12-18T10:47:14;0.30;99.90
2603;DHT22;1311;47.966;7.958;2022-12-18T10:49:47;0.40;99.90
2603;DHT22;1311;47.966;7.958;2022-12-18T10:52:16;0.60;99.90
2603;DHT22;1311;47.966;7.958;2022-12-18T10:54:49;0.80;99.90
2603;DHT22;1311;47.966;7.958;2022-12-18T10:57:27;1.00;99.90
2603;DHT22;1311;47.966;7.958;2022-12-18T10:59:57;1.00;99.90
2603;DHT22;1311;47.966;7.958;2022-12-18T11:02:34;1.10;99.90
2603;DHT22;1311;47.966;7.958;2022-12-18T11:05:01;1.30;99.90
2603;DHT22;1311;47.966;7.958;2022-12-18T11:07:47;1.50;99.90
2603;DHT22;1311;47.966;7.958;2022-12-18T11:10:17;1.60;99.90
2603;DHT22;1311;47.966;7.958;2022-12-18T11:12:45;1.70;99.90
2603;DHT22;1311;47.966;7.958;2022-12-18T11:15:16;1.80;99.90
2603;DHT22;1311;47.966;7.958;2022-12-18T11:17:47;1.90;99.90
2603;DHT22;1311;47.966;7.958;2022-12-18T11:20:23;2.00;99.90
2603;DHT22;1311;47.966;7.958;2022-12-18T11:22:56;2.10;99.90
2603;DHT22;1311;47.966;7.958;2022-12-18T11:25:25;2.10;99.90
2603;DHT22;1311;47.966;7.958;2022-12-18T11:27:55;2.20;99.90
2603;DHT22;1311;47.966;7.958;2022-12-18T11:30:24;2.20;99.90
2603;DHT22;1311;47.966;7.958;2022-12-18T11:32:54;2.20;99.90
2603;DHT22;1311;47.966;7.958;2022-12-18T11:35:29;2.20;99.90
2603;DHT22;1311;47.966;7.958;2022-12-18T11:37:59;2.30;99.90
2603;DHT22;1311;47.966;7.958;2022-12-18T11:40:35;2.30;99.90
2603;DHT22;1311;47.966;7.958;2022-12-18T11:43:08;2.40;99.90
2603;DHT22;1311;47.966;7.958;2022-12-18T11:45:41;2.50;99.90
2603;DHT22;1311;47.966;7.958;2022-12-18T11:48:15;2.50;99.90
2603;DHT22;1311;47.966;7.958;2022-12-18T11:50:48;2.50;99.90
2603;DHT22;1311;47.966;7.958;2022-12-18T11:53:15;2.70;99.90
2603;DHT22;1311;47.966;7.958;2022-12-18T11:55:52;2.60;99.90
2603;DHT22;1311;47.966;7.958;2022-12-18T11:58:39;2.60;99.90
2603;DHT22;1311;47.966;7.958;2022-12-18T12:01:16;2.70;99.90
2603;DHT22;1311;47.966;7.958;2022-12-18T12:04:03;2.90;99.90
2603;DHT22;1311;47.966;7.958;2022-12-18T12:06:40;3.00;99.90
2603;DHT22;1311;47.966;7.958;2022-12-18T12:09:16;3.00;99.90
2603;DHT22;1311;47.966;7.958;2022-12-18T12:11:59;2.90;99.90
2603;DHT22;1311;47.966;7.958;2022-12-18T12:14:43;2.90;99.90
2603;DHT22;1311;47.966;7.958;2022-12-18T12:17:20;2.90;99.90
2603;DHT22;1311;47.966;7.958;2022-12-18T12:19:56;2.90;99.90
2603;DHT22;1311;47.966;7.958;2022-12-18T12:22:32;2.80;99.90
2603;DHT22;1311;47.966;7.958;2022-12-18T12:25:16;2.80;99.90
2603;DHT22;1311;47.966;7.958;2022-12-18T12:27:52;2.60;99.90
2603;DHT22;1311;47.966;7.958;2022-12-18T12:30:30;2.70;99.90
2603;DHT22;1311;47.966;7.958;2022-12-18T12:33:14;2.70;99.90
2603;DHT22;1311;47.966;7.958;2022-12-18T12:35:47;2.50;99.90
2603;DHT22;1311;47.966;7.958;2022-12-18T12:38:21;2.40;99.90
2603;DHT22;1311;47.966;7.958;2022-12-18T12:40:54;2.40;99.90
2603;DHT22;1311;47.966;7.958;2022-12-18T12:43:31;2.20;99.90
2603;DHT22;1311;47.966;7.958;2022-12-18T12:46:05;1.90;99.90
2603;DHT22;1311;47.966;7.958;2022-12-18T12:48:36;2.00;99.90
2603;DHT22;1311;47.966;7.958;2022-12-18T12:51:11;2.20;99.90
2603;DHT22;1311;47.966;7.958;2022-12-18T12:53:39;2.30;99.90
2603;DHT22;1311;47.966;7.958;2022-12-18T12:56:10;2.50;99.90
2603;DHT22;1311;47.966;7.958;2022-12-18T12:58:45;2.60;99.90
2603;DHT22;1311;47.966;7.958;2022-12-18T13:01:20;2.60;99.90
2603;DHT22;1311;47.966;7.958;2022-12-18T13:03:56;2.60;99.90
2603;DHT22;1311;47.966;7.958;2022-12-18T13:06:33;2.50;99.90
2603;DHT22;1311;47.966;7.958;2022-12-18T13:09:03;2.20;99.90
2603;DHT22;1311;47.966;7.958;2022-12-18T13:11:34;2.10;99.90
2603;DHT22;1311;47.966;7.958;2022-12-18T13:14:28;2.20;99.90
2603;DHT22;1311;47.966;7.958;2022-12-18T13:17:23;2.20;99.90
2603;DHT22;1311;47.966;7.958;2022-12-18T13:20:07;2.20;99.90
2603;DHT22;1311;47.966;7.958;2022-12-18T13:22:37;2.20;99.90
2603;DHT22;1311;47.966;7.958;2022-12-18T13:25:29;2.30;99.90
2603;DHT22;1311;47.966;7.958;2022-12-18T13:28:05;2.30;99.90
2603;DHT22;1311;47.966;7.958;2022-12-18T13:30:49;2.30;99.90
2603;DHT22;1311;47.966;7.958;2022-12-18T13:33:49;2.40;99.90
2603;DHT22;1311;47.966;7.958;2022-12-18T13:36:31;2.50;99.90
2603;DHT22;1311;47.966;7.958;2022-12-18T13:39:32;2.60;99.90
2603;DHT22;1311;47.966;7.958;2022-12-18T13:42:37;2.60;99.90
2603;DHT22;1311;47.966;7.958;2022-12-18T13:45:41;2.50;99.90
2603;DHT22;1311;47.966;7.958;2022-12-18T13:51:27;2.40;99.90
2603;DHT22;1311;47.966;7.958;2022-12-18T13:53:56;2.30;99.90
2603;DHT22;1311;47.966;7.958;2022-12-18T13:56:26;2.20;99.90
2603;DHT22;1311;47.966;7.958;2022-12-18T13:59:17;2.10;99.90
2603;DHT22;1311;47.966;7.958;2022-12-18T14:01:47;2.20;99.90
2603;DHT22;1311;47.966;7.958;2022-12-18T14:04:21;2.20;99.90
2603;DHT22;1311;47.966;7.958;2022-12-18T14:06:51;2.20;99.90
2603;DHT22;1311;47.966;7.958;2022-12-18T14:09:23;2.20;99.90
2603;DHT22;1311;47.966;7.958;2022-12-18T14:11:51;2.10;99.90
2603;DHT22;1311;47.966;7.958;2022-12-18T14:14:41;2.00;99.90
2603;DHT22;1311;47.966;7.958;2022-12-18T14:17:10;2.00;99.90
2603;DHT22;1311;47.966;7.958;2022-12-18T14:19:37;1.90;99.90
2603;DHT22;1311;47.966;7.958;2022-12-18T14:22:14;1.90;99.90
2603;DHT22;1311;47.966;7.958;2022-12-18T14:24:41;1.80;99.90
2603;DHT22;1311;47.966;7.958;2022-12-18T14:27:17;1.60;99.90
2603;DHT22;1311;47.966;7.958;2022-12-18T14:29:45;1.50;99.90
2603;DHT22;1311;47.966;7.958;2022-12-18T14:32:14;1.40;99.90
2603;DHT22;1311;47.966;7.958;2022-12-18T14:34:42;1.10;99.90
2603;DHT22;1311;47.966;7.958;2022-12-18T14:37:12;1.10;99.90
2603;DHT22;1311;47.966;7.958;2022-12-18T14:39:39;0.90;99.90
2603;DHT22;1311;47.966;7.958;2022-12-18T14:42:10;0.80;99.90
2603;DHT22;1311;47.966;7.958;2022-12-18T14:44:37;0.80;99.90
2603;DHT22;1311;47.966;7.958;2022-12-18T14:47:04;0.70;99.90
2603;DHT22;1311;47.966;7.958;2022-12-18T14:49:32;0.70;99.90
2603;DHT22;1311;47.966;7.958;2022-12-18T14:52:00;0.60;99.90
2603;DHT22;1311;47.966;7.958;2022-12-18T14:54:30;0.50;99.90
2603;DHT22;1311;47.966;7.958;2022-12-18T14:57:00;0.40;99.90
2603;DHT22;1311;47.966;7.958;2022-12-18T14:59:30;0.30;99.90
2603;DHT22;1311;47.966;7.958;2022-12-18T15:02:01;0.40;99.90
2603;DHT22;1311;47.966;7.958;2022-12-18T15:04:31;0.20;99.90
2603;DHT22;1311;47.966;7.958;2022-12-18T15:07:14;0.10;99.90
2603;DHT22;1311;47.966;7.958;2022-12-18T15:10:02;0.10;99.90
2603;DHT22;1311;47.966;7.958;2022-12-18T15:12:34;0.10;99.90
2603;DHT22;1311;47.966;7.958;2022-12-18T15:15:01;0.20;99.90
2603;DHT22;1311;47.966;7.958;2022-12-18T15:17:28;0.00;99.90
2603;DHT22;1311;47.966;7.958;2022-12-18T15:20:02;-0.10;99.90
2603;DHT22;1311;47.966;7.958;2022-12-18T15:22:30;-0.10;99.90
2603;DHT22;1311;47.966;7.958;2022-12-18T15:25:23;-0.10;99.90
2603;DHT22;1311;47.966;7.958;2022-12-18T15:27:53;-0.10;99.90
2603;DHT22;1311;47.966;7.958;2022-12-18T15:30:22;-0.10;99.90
2603;DHT22;1311;47.966;7.958;2022-12-18T15:32:50;-0.10;99.90
2603;DHT22;1311;47.966;7.958;2022-12-18T15:35:19;-0.10;99.90
2603;DHT22;1311;47.966;7.958;2022-12-18T15:37:48;-0.10;99.90
2603;DHT22;1311;47.966;7.958;2022-12-18T15:40:18;-0.20;99.90
2603;DHT22;1311;47.966;7.958;2022-12-18T15:42:46;-0.20;99.90
2603;DHT22;1311;47.966;7.958;2022-12-18T15:45:31;-0.20;99.90
2603;DHT22;1311;47.966;7.958;2022-12-18T15:47:58;-0.20;99.90
2603;DHT22;1311;47.966;7.958;2022-12-18T15:50:25;-0.20;99.90
2603;DHT22;1311;47.966;7.958;2022-12-18T15:52:54;-0.10;99.90
2603;DHT22;1311;47.966;7.958;2022-12-18T15:55:23;-0.10;99.90
2603;DHT22;1311;47.966;7.958;2022-12-18T15:58:05;-0.10;99.90
2603;DHT22;1311;47.966;7.958;2022-12-18T16:00:33;-0.10;99.90
2603;DHT22;1311;47.966;7.958;2022-12-18T16:03:03;-0.10;99.90
2603;DHT22;1311;47.966;7.958;2022-12-18T16:05:31;-0.20;99.90
2603;DHT22;1311;47.966;7.958;2022-12-18T16:07:58;-0.10;99.90
2603;DHT22;1311;47.966;7.958;2022-12-18T16:10:27;-0.20;99.90
2603;DHT22;1311;47.966;7.958;2022-12-18T16:12:54;-0.20;99.90
2603;DHT22;1311;47.966;7.958;2022-12-18T16:15:21;-0.20;99.90
2603;DHT22;1311;47.966;7.958;2022-12-18T16:17:48;-0.20;99.90
2603;DHT22;1311;47.966;7.958;2022-12-18T16:20:16;-0.20;99.90
2603;DHT22;1311;47.966;7.958;2022-12-18T16:22:43;-0.20;99.90
2603;DHT22;1311;47.966;7.958;2022-12-18T16:25:18;-0.20;99.90
2603;DHT22;1311;47.966;7.958;2022-12-18T16:27:46;-0.20;99.90
2603;DHT22;1311;47.966;7.958;2022-12-18T16:30:14;-0.20;99.90
2603;DHT22;1311;47.966;7.958;2022-12-18T16:32:41;-0.20;99.90
2603;DHT22;1311;47.966;7.958;2022-12-18T16:35:10;-0.20;99.90